createdAt,value
2018-04-14T00:00:27.263Z,6.47
2018-04-14T00:01:29.773Z,6.55
2018-04-14T00:02:32.255Z,6.00
2018-04-14T00:03:34.767Z,6.35
2018-04-14T00:04:38.040Z,6.07
2018-04-14T00:05:40.519Z,6.53
2018-04-14T00:06:42.987Z,6.25
2018-04-14T00:07:46.231Z,6.55
2018-04-14T00:08:48.706Z,7.05
2018-04-14T00:09:51.178Z,7.15
2018-04-14T00:10:53.668Z,6.87
2018-04-14T00:11:56.903Z,8.52
2018-04-14T00:12:59.372Z,8.80
2018-04-14T00:14:01.836Z,8.30
2018-04-14T00:15:04.310Z,10.13
2018-04-14T00:16:06.812Z,9.43
2018-04-14T00:17:10.046Z,9.38
2018-04-14T00:18:12.544Z,9.15
2018-04-14T00:19:15.011Z,9.88
2018-04-14T00:20:17.479Z,9.00
2018-04-14T00:21:19.973Z,8.52
2018-04-14T00:22:22.481Z,7.70
2018-04-14T00:23:24.948Z,8.43
2018-04-14T00:24:27.424Z,7.65
2018-04-14T00:25:29.897Z,8.05
2018-04-14T00:26:32.389Z,7.43
2018-04-14T00:27:34.853Z,7.47
2018-04-14T00:28:38.104Z,7.68
2018-04-14T00:29:40.572Z,7.93
2018-04-14T00:30:43.036Z,7.43
2018-04-14T00:31:46.289Z,7.00
2018-04-14T00:32:48.764Z,7.50
2018-04-14T00:33:51.227Z,7.47
2018-04-14T00:34:53.708Z,6.78
2018-04-14T00:35:56.180Z,7.00
2018-04-14T00:36:58.674Z,7.43
2018-04-14T00:38:01.180Z,7.90
2018-04-14T00:39:03.647Z,7.87
2018-04-14T00:40:06.147Z,7.37
2018-04-14T00:41:09.509Z,7.97
2018-04-14T00:42:12.036Z,7.90
2018-04-14T00:43:14.509Z,7.65
2018-04-14T00:44:16.976Z,7.57
2018-04-14T00:45:19.444Z,6.85
2018-04-14T00:46:21.911Z,7.20
2018-04-14T00:47:24.403Z,7.30
2018-04-14T00:48:27.035Z,7.30
2018-04-14T00:49:29.503Z,7.15
2018-04-14T00:50:31.972Z,7.28
2018-04-14T00:51:34.439Z,7.22
2018-04-14T00:52:36.928Z,6.90
2018-04-14T00:53:47.178Z,6.85
2018-04-14T00:54:49.644Z,6.15
2018-04-14T00:55:52.109Z,7.20
2018-04-14T00:56:54.571Z,6.35
2018-04-14T00:57:57.068Z,6.87
2018-04-14T00:58:59.528Z,7.78
2018-04-14T01:00:02.764Z,8.57
2018-04-14T01:01:06.047Z,9.25
2018-04-14T01:02:08.522Z,9.32
2018-04-14T01:03:11.060Z,9.32
2018-04-14T01:04:14.369Z,8.93
2018-04-14T01:05:16.834Z,9.00
2018-04-14T01:06:19.311Z,10.45
2018-04-14T01:07:21.779Z,10.32
2018-04-14T01:08:24.316Z,10.38
2018-04-14T01:09:26.786Z,10.18
2018-04-14T01:10:29.249Z,9.80
2018-04-14T01:11:31.788Z,9.13
2018-04-14T01:12:35.224Z,9.65
2018-04-14T01:13:37.715Z,8.27
2018-04-14T01:14:41.621Z,8.82
2018-04-14T01:15:44.089Z,8.65
2018-04-14T01:16:46.552Z,8.18
2018-04-14T01:17:49.075Z,8.35
2018-04-14T01:18:51.564Z,8.15
2018-04-14T01:19:54.835Z,7.95
2018-04-14T01:20:57.299Z,9.45
2018-04-14T01:22:00.540Z,12.20
2018-04-14T01:23:03.008Z,10.65
2018-04-14T01:24:05.496Z,10.68
2018-04-14T01:25:09.479Z,8.68
2018-04-14T01:26:11.961Z,8.40
2018-04-14T01:27:14.448Z,8.75
2018-04-14T01:28:17.679Z,8.20
2018-04-14T01:29:20.168Z,8.23
2018-04-14T01:30:22.638Z,8.10
2018-04-14T01:31:25.140Z,8.32
2018-04-14T01:32:28.416Z,8.00
2018-04-14T01:33:30.854Z,8.27
2018-04-14T01:34:34.852Z,8.48
2018-04-14T01:35:37.319Z,8.30
2018-04-14T01:36:39.787Z,8.48
2018-04-14T01:37:42.255Z,8.77
2018-04-14T01:38:45.491Z,9.40
2018-04-14T01:39:47.982Z,10.07
2018-04-14T01:40:50.451Z,10.63
2018-04-14T01:41:52.920Z,9.55
2018-04-14T01:42:55.399Z,10.07
2018-04-14T01:43:58.468Z,10.48
2018-04-14T01:45:00.968Z,9.77
2018-04-14T01:46:03.436Z,10.32
2018-04-14T01:47:05.908Z,10.60
2018-04-14T01:48:08.388Z,9.38
2018-04-14T01:49:10.852Z,9.95
2018-04-14T01:50:13.339Z,11.00
2018-04-14T01:51:15.812Z,11.45
2018-04-14T01:52:18.283Z,11.30
2018-04-14T01:53:20.747Z,9.90
2018-04-14T01:54:23.204Z,9.32
2018-04-14T01:55:25.704Z,8.80
2018-04-14T01:56:28.940Z,9.00
2018-04-14T01:57:31.407Z,8.52
2018-04-14T01:58:33.919Z,8.13
2018-04-14T01:59:36.388Z,9.18
2018-04-14T02:00:38.879Z,8.57
2018-04-14T02:01:41.344Z,8.45
2018-04-14T02:02:43.811Z,10.68
2018-04-14T02:03:46.275Z,9.80
2018-04-14T02:04:48.745Z,10.15
2018-04-14T02:05:51.238Z,8.75
2018-04-14T02:06:53.705Z,8.05
2018-04-14T02:07:56.164Z,8.23
2018-04-14T02:08:58.635Z,8.90
2018-04-14T02:10:01.115Z,8.70
2018-04-14T02:11:04.377Z,8.30
2018-04-14T02:12:08.352Z,8.18
2018-04-14T02:13:10.815Z,9.18
2018-04-14T02:14:13.284Z,8.57
2018-04-14T02:15:15.747Z,8.18
2018-04-14T02:16:18.235Z,7.50
2018-04-14T02:17:20.699Z,7.32
2018-04-14T02:18:23.163Z,7.55
2018-04-14T02:19:25.668Z,7.35
2018-04-14T02:20:28.129Z,7.55
2018-04-14T02:21:30.684Z,6.87
2018-04-14T02:22:33.912Z,7.00
2018-04-14T02:23:36.380Z,7.43
2018-04-14T02:24:38.869Z,7.18
2018-04-14T02:25:42.115Z,7.20
2018-04-14T02:26:44.600Z,6.90
2018-04-14T02:27:47.070Z,6.85
2018-04-14T02:28:49.527Z,7.18
2018-04-14T02:29:52.043Z,7.05
2018-04-14T02:30:54.522Z,6.90
2018-04-14T02:31:57.020Z,6.18
2018-04-14T02:32:59.500Z,6.70
2018-04-14T02:34:03.473Z,6.18
2018-04-14T02:35:05.943Z,6.12
2018-04-14T02:36:08.404Z,6.25
2018-04-14T02:37:10.912Z,6.30
2018-04-14T02:38:14.148Z,6.28
2018-04-14T02:39:16.615Z,5.90
2018-04-14T02:40:19.079Z,6.45
2018-04-14T02:41:21.548Z,6.28
2018-04-14T02:42:24.036Z,5.60
2018-04-14T02:43:26.560Z,5.80
2018-04-14T02:44:29.027Z,5.90
2018-04-14T02:45:31.492Z,5.15
2018-04-14T02:46:33.963Z,5.87
2018-04-14T02:47:36.463Z,5.53
2018-04-14T02:48:39.700Z,6.55
2018-04-14T02:49:42.171Z,5.30
2018-04-14T02:50:44.638Z,5.75
2018-04-14T02:51:47.343Z,5.37
2018-04-14T02:52:49.863Z,5.57
2018-04-14T02:53:52.332Z,5.90
2018-04-14T02:54:54.900Z,5.97
2018-04-14T02:55:57.360Z,5.55
2018-04-14T02:56:59.838Z,5.25
2018-04-14T02:58:02.327Z,6.20
2018-04-14T02:59:04.788Z,5.18
2018-04-14T03:00:07.256Z,5.00
2018-04-14T03:01:09.725Z,5.25
2018-04-14T03:02:12.211Z,5.25
2018-04-14T03:03:15.576Z,4.95
2018-04-14T03:04:18.038Z,4.82
2018-04-14T03:05:20.499Z,5.05
2018-04-14T03:06:23.732Z,4.90
2018-04-14T03:07:26.196Z,4.57
2018-04-14T03:08:28.684Z,4.72
2018-04-14T03:09:31.147Z,5.22
2018-04-14T03:10:33.606Z,5.05
2018-04-14T03:11:36.077Z,4.78
2018-04-14T03:12:38.548Z,4.93
2018-04-14T03:13:41.032Z,4.40
2018-04-14T03:14:43.500Z,4.50
2018-04-14T03:15:45.963Z,5.25
2018-04-14T03:16:48.428Z,4.97
2018-04-14T03:17:50.896Z,4.82
2018-04-14T03:18:53.443Z,4.68
2018-04-14T03:19:55.908Z,4.85
2018-04-14T03:20:58.368Z,4.97
2018-04-14T03:22:00.836Z,4.78
2018-04-14T03:23:03.311Z,4.53
2018-04-14T03:24:06.556Z,4.68
2018-04-14T03:25:09.044Z,4.50
2018-04-14T03:26:11.508Z,4.53
2018-04-14T03:27:13.984Z,5.32
2018-04-14T03:28:16.452Z,4.93
2018-04-14T03:29:19.023Z,5.10
2018-04-14T03:30:21.490Z,4.65
2018-04-14T03:31:23.955Z,4.45
2018-04-14T03:32:26.471Z,4.60
2018-04-14T03:33:28.940Z,4.47
2018-04-14T03:34:31.460Z,4.97
2018-04-14T03:35:34.692Z,5.80
2018-04-14T03:36:37.152Z,5.62
2018-04-14T03:37:39.623Z,5.43
2018-04-14T03:38:42.084Z,5.20
2018-04-14T03:39:44.568Z,4.70
2018-04-14T03:40:47.035Z,4.43
2018-04-14T03:41:49.504Z,4.93
2018-04-14T03:42:51.959Z,3.87
2018-04-14T03:43:54.428Z,4.37
2018-04-14T03:44:56.931Z,4.80
2018-04-14T03:46:00.168Z,4.43
2018-04-14T03:47:02.667Z,4.35
2018-04-14T03:48:05.904Z,4.40
2018-04-14T03:49:08.374Z,4.10
2018-04-14T03:50:10.867Z,4.30
2018-04-14T03:51:13.371Z,4.07
2018-04-14T03:52:15.839Z,3.95
2018-04-14T03:53:18.303Z,4.03
2018-04-14T03:54:20.762Z,4.30
2018-04-14T03:55:23.267Z,4.15
2018-04-14T03:56:25.737Z,3.75
2018-04-14T03:57:28.204Z,3.78
2018-04-14T03:58:30.701Z,3.62
2018-04-14T03:59:33.151Z,3.70
2018-04-14T04:00:35.636Z,3.58
2018-04-14T04:01:38.867Z,3.83
2018-04-14T04:02:41.332Z,4.18
2018-04-14T04:03:43.804Z,3.70
2018-04-14T04:04:46.276Z,4.30
2018-04-14T04:05:48.763Z,4.57
2018-04-14T04:06:51.992Z,4.00
2018-04-14T04:07:54.460Z,4.10
2018-04-14T04:08:56.920Z,3.90
2018-04-14T04:09:59.392Z,3.85
2018-04-14T04:11:01.884Z,3.60
2018-04-14T04:12:04.352Z,3.65
2018-04-14T04:13:07.588Z,4.10
2018-04-14T04:14:10.052Z,3.92
2018-04-14T04:15:12.544Z,4.28
2018-04-14T04:16:15.028Z,4.30
2018-04-14T04:17:17.496Z,3.87
2018-04-14T04:18:31.940Z,4.10
2018-04-14T04:19:46.328Z,3.75
2018-04-14T04:21:00.748Z,3.90
2018-04-14T04:22:15.971Z,3.90
2018-04-14T04:23:30.235Z,3.50
2018-04-14T04:24:44.571Z,4.18
2018-04-14T04:25:47.037Z,4.15
2018-04-14T04:26:50.381Z,5.40
2018-04-14T04:27:52.869Z,4.60
2018-04-14T04:28:55.360Z,4.07
2018-04-14T04:29:57.828Z,4.00
2018-04-14T04:31:00.294Z,4.40
2018-04-14T04:32:02.755Z,4.60
2018-04-14T04:33:05.236Z,4.30
2018-04-14T04:34:08.524Z,4.45
2018-04-14T04:35:11.821Z,4.00
2018-04-14T04:36:15.016Z,4.35
2018-04-14T04:37:17.511Z,4.20
2018-04-14T04:38:20.000Z,4.22
2018-04-14T04:39:23.228Z,4.30
2018-04-14T04:40:25.687Z,4.45
2018-04-14T04:41:28.171Z,4.00
2018-04-14T04:42:30.630Z,4.05
2018-04-14T04:43:33.115Z,3.75
2018-04-14T04:44:35.576Z,3.65
2018-04-14T04:45:38.035Z,3.70
2018-04-14T04:46:40.500Z,4.05
2018-04-14T04:47:42.967Z,3.53
2018-04-14T04:48:45.502Z,3.50
2018-04-14T04:49:47.927Z,3.58
2018-04-14T04:50:50.388Z,3.78
2018-04-14T04:51:52.852Z,3.50
2018-04-14T04:52:56.089Z,3.40
2018-04-14T04:53:58.574Z,3.65
2018-04-14T04:55:01.044Z,3.65
2018-04-14T04:56:03.515Z,3.83
2018-04-14T04:57:05.988Z,3.17
2018-04-14T04:58:08.459Z,3.62
2018-04-14T04:59:10.967Z,3.72
2018-04-14T05:00:13.488Z,3.60
2018-04-14T05:01:15.956Z,3.90
2018-04-14T05:02:18.421Z,3.72
2018-04-14T05:03:20.891Z,4.32
2018-04-14T05:04:24.136Z,3.85
2018-04-14T05:05:26.603Z,3.90
2018-04-14T05:06:29.067Z,3.92
2018-04-14T05:07:31.528Z,3.80
2018-04-14T05:08:34.014Z,3.78
2018-04-14T05:09:37.271Z,3.70
2018-04-14T05:10:39.735Z,3.60
2018-04-14T05:11:42.199Z,3.62
2018-04-14T05:12:44.669Z,3.47
2018-04-14T05:13:47.128Z,3.60
2018-04-14T05:14:49.616Z,3.87
2018-04-14T05:15:52.128Z,3.78
2018-04-14T05:16:55.275Z,3.85
2018-04-14T05:17:58.544Z,3.50
2018-04-14T05:19:01.024Z,4.03
2018-04-14T05:20:03.529Z,3.92
2018-04-14T05:21:05.988Z,3.75
2018-04-14T05:22:08.445Z,3.72
2018-04-14T05:23:10.905Z,4.18
2018-04-14T05:24:13.397Z,3.70
2018-04-14T05:25:15.877Z,3.95
2018-04-14T05:26:18.343Z,3.70
2018-04-14T05:27:20.835Z,4.10
2018-04-14T05:28:23.305Z,4.03
2018-04-14T05:29:26.532Z,3.97
2018-04-14T05:30:29.044Z,4.18
2018-04-14T05:31:31.508Z,3.80
2018-04-14T05:32:33.987Z,3.60
2018-04-14T05:33:37.217Z,3.78
2018-04-14T05:34:39.691Z,3.80
2018-04-14T05:35:42.176Z,3.85
2018-04-14T05:36:44.668Z,3.90
2018-04-14T05:37:47.900Z,3.78
2018-04-14T05:38:50.356Z,3.55
2018-04-14T05:39:52.822Z,3.70
2018-04-14T05:40:55.332Z,4.03
2018-04-14T05:41:58.564Z,3.95
2018-04-14T05:43:01.056Z,3.78
2018-04-14T05:44:03.526Z,3.97
2018-04-14T05:45:07.492Z,4.12
2018-04-14T05:46:09.975Z,4.05
2018-04-14T05:47:12.480Z,3.95
2018-04-14T05:48:15.715Z,4.12
2018-04-14T05:49:18.184Z,4.22
2018-04-14T05:50:20.658Z,4.68
2018-04-14T05:51:23.144Z,4.20
2018-04-14T05:52:25.612Z,4.35
2018-04-14T05:53:28.076Z,3.83
2018-04-14T05:54:31.312Z,4.18
2018-04-14T05:55:33.788Z,4.57
2018-04-14T05:56:36.276Z,4.10
2018-04-14T05:57:38.836Z,4.15
2018-04-14T05:58:41.303Z,4.12
2018-04-14T05:59:43.767Z,3.97
2018-04-14T06:00:46.232Z,4.68
2018-04-14T06:01:48.772Z,4.68
2018-04-14T06:02:51.232Z,4.62
2018-04-14T06:03:53.699Z,4.82
2018-04-14T06:04:56.167Z,5.20
2018-04-14T06:05:58.631Z,5.30
2018-04-14T06:07:01.115Z,5.57
2018-04-14T06:08:03.583Z,5.78
2018-04-14T06:09:06.105Z,5.05
2018-04-14T06:10:08.539Z,5.05
2018-04-14T06:11:11.792Z,5.53
2018-04-14T06:12:14.280Z,5.12
2018-04-14T06:13:17.512Z,5.00
2018-04-14T06:14:19.979Z,5.30
2018-04-14T06:15:22.456Z,6.30
2018-04-14T06:16:24.921Z,6.43
2018-04-14T06:17:27.400Z,6.45
2018-04-14T06:18:29.864Z,6.53
2018-04-14T06:19:32.328Z,7.30
2018-04-14T06:20:34.824Z,7.00
2018-04-14T06:21:38.052Z,5.35
2018-04-14T06:22:40.540Z,5.68
2018-04-14T06:23:43.029Z,5.90
2018-04-14T06:24:46.260Z,5.30
2018-04-14T06:25:48.720Z,5.60
2018-04-14T06:26:51.192Z,6.45
2018-04-14T06:27:53.687Z,6.47
2018-04-14T06:28:56.151Z,5.90
2018-04-14T06:29:58.620Z,5.87
2018-04-14T06:31:01.080Z,6.18
2018-04-14T06:32:03.548Z,5.93
2018-04-14T06:33:06.032Z,6.68
2018-04-14T06:34:09.264Z,7.70
2018-04-14T06:35:11.759Z,6.40
2018-04-14T06:36:14.223Z,7.00
2018-04-14T06:37:16.696Z,11.93
2018-04-14T06:38:19.948Z,8.77
2018-04-14T06:39:22.424Z,8.00
2018-04-14T06:40:24.888Z,7.87
2018-04-14T06:41:27.360Z,7.87
2018-04-14T06:42:29.828Z,8.80
2018-04-14T06:43:32.321Z,7.70
2018-04-14T06:44:34.785Z,7.35
2018-04-14T06:45:37.239Z,7.40
2018-04-14T06:46:40.475Z,7.47
2018-04-14T06:47:42.940Z,7.20
2018-04-14T06:48:45.419Z,7.47
2018-04-14T06:49:47.935Z,7.68
2018-04-14T06:50:50.403Z,7.95
2018-04-14T06:51:52.932Z,7.53
2018-04-14T06:52:55.399Z,8.30
2018-04-14T06:53:58.660Z,7.30
2018-04-14T06:55:01.128Z,8.23
2018-04-14T06:56:04.560Z,7.65
2018-04-14T06:57:07.055Z,7.90
2018-04-14T06:58:09.551Z,8.50
2018-04-14T06:59:13.549Z,9.25
2018-04-14T07:00:16.060Z,13.20
2018-04-14T07:01:18.528Z,13.15
2018-04-14T07:02:21.007Z,14.15
2018-04-14T07:03:23.475Z,14.70
2018-04-14T07:04:26.034Z,16.05
2018-04-14T07:05:29.244Z,17.12
2018-04-14T07:06:31.736Z,17.23
2018-04-14T07:07:35.076Z,17.73
2018-04-14T07:08:38.291Z,19.70
2018-04-14T07:09:40.783Z,20.37
2018-04-14T07:10:43.259Z,20.35
2018-04-14T07:11:45.723Z,20.62
2018-04-14T07:12:48.204Z,20.73
2018-04-14T07:13:50.679Z,20.48
2018-04-14T07:14:53.188Z,20.58
2018-04-14T07:15:56.423Z,19.55
2018-04-14T07:16:58.896Z,20.15
2018-04-14T07:18:01.372Z,20.33
2018-04-14T07:19:03.848Z,20.52
2018-04-14T07:20:06.420Z,19.77
2018-04-14T07:21:08.888Z,19.52
2018-04-14T07:22:11.372Z,21.37
2018-04-14T07:23:14.615Z,21.85
2018-04-14T07:24:17.228Z,20.90
2018-04-14T07:25:19.729Z,20.05
2018-04-14T07:26:22.652Z,18.87
2018-04-14T07:27:25.892Z,19.83
2018-04-14T07:28:28.364Z,19.23
2018-04-14T07:29:30.840Z,18.60
2018-04-14T07:30:33.339Z,18.62
2018-04-14T07:31:36.574Z,19.70
2018-04-14T07:32:39.043Z,22.23
2018-04-14T07:33:41.508Z,21.83
2018-04-14T07:34:43.989Z,23.60
2018-04-14T07:35:46.520Z,25.23
2018-04-14T07:36:48.990Z,23.42
2018-04-14T07:37:52.400Z,20.20
2018-04-14T07:38:54.868Z,21.45
2018-04-14T07:39:57.338Z,21.90
2018-04-14T07:40:59.837Z,20.67
2018-04-14T07:42:02.304Z,21.67
2018-04-14T07:43:04.779Z,23.12
2018-04-14T07:44:07.277Z,23.42
2018-04-14T07:45:09.780Z,24.75
2018-04-14T07:46:13.092Z,24.85
2018-04-14T07:47:15.573Z,23.75
2018-04-14T07:48:18.064Z,25.98
2018-04-14T07:49:20.536Z,27.17
2018-04-14T07:50:23.011Z,27.65
2018-04-14T07:51:26.275Z,28.12
2018-04-14T07:52:28.744Z,28.85
2018-04-14T07:53:31.212Z,28.55
2018-04-14T07:54:33.700Z,27.87
2018-04-14T07:55:37.097Z,30.23
2018-04-14T07:56:39.592Z,29.50
2018-04-14T07:57:42.098Z,30.17
2018-04-14T07:58:44.562Z,30.58
2018-04-14T07:59:47.806Z,30.65
2018-04-14T08:00:50.280Z,28.92
2018-04-14T08:01:52.776Z,30.10
2018-04-14T08:02:56.032Z,29.85
2018-04-14T08:03:58.507Z,29.58
2018-04-14T08:05:01.010Z,31.33
2018-04-14T08:06:03.484Z,30.58
2018-04-14T08:07:05.979Z,30.35
2018-04-14T08:08:08.504Z,32.05
2018-04-14T08:09:11.740Z,32.05
2018-04-14T08:10:14.218Z,31.70
2018-04-14T08:11:16.711Z,30.40
2018-04-14T08:12:19.968Z,32.08
2018-04-14T08:13:22.435Z,30.60
2018-04-14T08:14:24.908Z,31.40
2018-04-14T08:15:27.464Z,31.45
2018-04-14T08:16:29.931Z,32.10
2018-04-14T08:17:32.507Z,32.33
2018-04-14T08:18:35.780Z,33.15
2018-04-14T08:19:38.249Z,32.72
2018-04-14T08:20:40.763Z,32.67
2018-04-14T08:21:43.248Z,34.35
2018-04-14T08:22:45.747Z,34.80
2018-04-14T08:23:48.987Z,34.83
2018-04-14T08:24:51.452Z,36.83
2018-04-14T08:25:53.932Z,40.85
2018-04-14T08:26:56.401Z,38.95
2018-04-14T08:27:59.207Z,35.05
2018-04-14T08:29:02.444Z,34.72
2018-04-14T08:30:04.926Z,36.08
2018-04-14T08:31:07.445Z,35.65
2018-04-14T08:32:09.911Z,36.50
2018-04-14T08:33:12.408Z,40.95
2018-04-14T08:34:14.933Z,40.33
2018-04-14T08:35:17.400Z,37.67
2018-04-14T08:36:19.872Z,38.00
2018-04-14T08:37:22.383Z,36.03
2018-04-14T08:38:24.851Z,40.15
2018-04-14T08:39:27.331Z,37.47
2018-04-14T08:40:30.564Z,36.55
2018-04-14T08:41:33.050Z,36.03
2018-04-14T08:42:35.520Z,39.20
2018-04-14T08:43:38.007Z,39.25
2018-04-14T08:44:41.239Z,40.78
2018-04-14T08:45:43.716Z,41.13
2018-04-14T08:46:46.184Z,42.92
2018-04-14T08:47:48.664Z,36.85
2018-04-14T08:48:51.170Z,39.92
2018-04-14T08:49:53.639Z,39.45
2018-04-14T08:50:56.108Z,37.90
2018-04-14T08:51:58.580Z,38.38
2018-04-14T08:53:01.056Z,35.35
2018-04-14T08:54:03.551Z,39.67
2018-04-14T08:55:06.083Z,36.13
2018-04-14T08:56:08.626Z,36.47
2018-04-14T08:57:11.107Z,37.33
2018-04-14T08:58:13.592Z,40.30
2018-04-14T08:59:16.086Z,39.85
2018-04-14T09:00:18.552Z,38.00
2018-04-14T09:01:22.536Z,38.08
2018-04-14T09:02:25.015Z,33.55
2018-04-14T09:03:27.503Z,38.45
2018-04-14T09:04:30.051Z,36.20
2018-04-14T09:05:33.292Z,36.35
2018-04-14T09:06:35.783Z,40.03
2018-04-14T09:07:38.256Z,36.45
2018-04-14T09:08:41.492Z,37.40
2018-04-14T09:09:43.992Z,34.33
2018-04-14T09:10:46.461Z,34.17
2018-04-14T09:11:48.931Z,34.92
2018-04-14T09:12:51.468Z,35.42
2018-04-14T09:13:54.212Z,36.00
2018-04-14T09:14:56.723Z,33.47
2018-04-14T09:16:00.123Z,34.63
2018-04-14T09:17:03.355Z,35.88
2018-04-14T09:18:05.832Z,36.38
2018-04-14T09:19:08.307Z,36.15
2018-04-14T09:20:10.829Z,34.35
2018-04-14T09:21:13.343Z,35.55
2018-04-14T09:22:15.824Z,38.15
2018-04-14T09:23:18.296Z,36.17
2018-04-14T09:24:21.528Z,36.90
2018-04-14T09:25:24.015Z,35.42
2018-04-14T09:26:26.546Z,34.95
2018-04-14T09:27:28.980Z,36.10
2018-04-14T09:28:32.229Z,36.92
2018-04-14T09:29:34.789Z,36.55
2018-04-14T09:30:37.277Z,38.35
2018-04-14T09:31:39.744Z,39.45
2018-04-14T09:32:42.223Z,38.58
2018-04-14T09:33:45.464Z,39.38
2018-04-14T09:34:47.956Z,38.72
2018-04-14T09:35:51.208Z,37.28
2018-04-14T09:36:53.684Z,38.60
2018-04-14T09:37:56.188Z,36.67
2018-04-14T09:38:59.424Z,35.72
2018-04-14T09:40:01.932Z,36.03
2018-04-14T09:41:05.212Z,35.20
2018-04-14T09:42:08.496Z,35.10
2018-04-14T09:43:11.738Z,35.60
2018-04-14T09:44:14.235Z,34.65
2018-04-14T09:45:17.491Z,34.83
2018-04-14T09:46:19.972Z,36.10
2018-04-14T09:47:22.443Z,34.88
2018-04-14T09:48:24.920Z,34.97
2018-04-14T09:49:28.152Z,37.25
2018-04-14T09:50:31.484Z,39.47
2018-04-14T09:51:34.715Z,38.13
2018-04-14T09:52:37.185Z,39.95
2018-04-14T09:53:39.680Z,42.10
2018-04-14T09:54:42.151Z,39.65
2018-04-14T09:55:45.416Z,36.88
2018-04-14T09:56:47.888Z,38.55
2018-04-14T09:57:50.371Z,40.65
2018-04-14T09:58:52.844Z,38.60
2018-04-14T09:59:56.091Z,38.85
2018-04-14T10:01:01.465Z,37.30
2018-04-14T10:02:03.988Z,38.55
2018-04-14T10:03:12.280Z,37.63
2018-04-14T10:04:14.748Z,39.60
2018-04-14T10:05:17.252Z,35.92
2018-04-14T10:06:19.738Z,37.13
2018-04-14T10:07:22.212Z,38.85
2018-04-14T10:08:24.698Z,37.97
2018-04-14T10:09:27.168Z,36.42
2018-04-14T10:10:29.702Z,37.58
2018-04-14T10:11:32.192Z,39.83
2018-04-14T10:12:34.684Z,37.53
2018-04-14T10:13:37.152Z,36.22
2018-04-14T10:14:39.688Z,37.45
2018-04-14T10:15:42.167Z,37.70
2018-04-14T10:16:44.670Z,36.45
2018-04-14T10:17:47.904Z,36.63
2018-04-14T10:18:50.372Z,36.53
2018-04-14T10:19:52.856Z,37.25
2018-04-14T10:20:55.387Z,37.70
2018-04-14T10:21:57.868Z,34.78
2018-04-14T10:23:00.335Z,34.88
2018-04-14T10:24:02.820Z,34.03
2018-04-14T10:25:05.287Z,35.20
2018-04-14T10:26:08.524Z,34.75
2018-04-14T10:27:11.020Z,35.33
2018-04-14T10:28:14.055Z,35.35
2018-04-14T10:29:16.571Z,36.95
2018-04-14T10:30:19.040Z,38.10
2018-04-14T10:31:21.517Z,34.88
2018-04-14T10:32:24.789Z,35.67
2018-04-14T10:33:27.252Z,35.35
2018-04-14T10:34:30.576Z,36.65
2018-04-14T10:35:33.043Z,34.92
2018-04-14T10:36:35.520Z,36.65
2018-04-14T10:37:38.096Z,36.33
2018-04-14T10:38:40.754Z,35.60
2018-04-14T10:39:44.068Z,37.78
2018-04-14T10:40:46.540Z,38.53
2018-04-14T10:41:49.019Z,37.92
2018-04-14T10:42:52.291Z,36.72
2018-04-14T10:43:54.780Z,37.90
2018-04-14T10:44:58.020Z,36.50
2018-04-14T10:46:00.611Z,35.92
2018-04-14T10:47:03.093Z,35.58
2018-04-14T10:48:06.563Z,35.30
2018-04-14T10:49:09.069Z,37.80
2018-04-14T10:50:11.567Z,34.45
2018-04-14T10:51:14.064Z,34.17
2018-04-14T10:52:17.337Z,33.53
2018-04-14T10:53:19.872Z,32.47
2018-04-14T10:54:22.354Z,34.15
2018-04-14T10:55:24.824Z,31.95
2018-04-14T10:56:27.316Z,33.20
2018-04-14T10:57:30.558Z,34.25
2018-04-14T10:58:33.047Z,33.90
2018-04-14T10:59:35.536Z,35.50
2018-04-14T11:00:38.771Z,34.33
2018-04-14T11:01:41.248Z,35.90
2018-04-14T11:02:43.728Z,34.28
2018-04-14T11:03:47.724Z,34.13
2018-04-14T11:04:50.208Z,37.85
2018-04-14T11:05:53.448Z,38.17
2018-04-14T11:06:55.940Z,35.33
2018-04-14T11:07:59.176Z,34.83
2018-04-14T11:09:01.673Z,36.47
2018-04-14T11:10:04.144Z,36.15
2018-04-14T11:11:06.632Z,34.83
2018-04-14T11:12:09.911Z,33.70
2018-04-14T11:13:13.148Z,34.25
2018-04-14T11:14:15.692Z,33.13
2018-04-14T11:15:18.170Z,34.63
2018-04-14T11:16:20.851Z,34.65
2018-04-14T11:17:23.364Z,34.97
2018-04-14T11:18:26.612Z,34.90
2018-04-14T11:19:29.160Z,35.15
2018-04-14T11:20:31.693Z,35.72
2018-04-14T11:21:34.125Z,34.17
2018-04-14T11:22:37.373Z,34.63
2018-04-14T11:23:39.850Z,33.50
2018-04-14T11:24:42.336Z,31.33
2018-04-14T11:25:45.579Z,31.10
2018-04-14T11:26:48.095Z,29.23
2018-04-14T11:27:50.604Z,29.52
2018-04-14T11:28:53.079Z,33.33
2018-04-14T11:29:55.567Z,29.12
2018-04-14T11:30:58.035Z,28.35
2018-04-14T11:32:00.503Z,28.70
2018-04-14T11:33:03.008Z,28.42
2018-04-14T11:34:05.475Z,27.13
2018-04-14T11:35:07.964Z,25.85
2018-04-14T11:36:10.438Z,26.62
2018-04-14T11:37:12.923Z,27.00
2018-04-14T11:38:15.458Z,26.85
2018-04-14T11:39:17.924Z,27.37
2018-04-14T11:40:20.414Z,28.40
2018-04-14T11:41:22.885Z,28.58
2018-04-14T11:42:25.352Z,28.92
2018-04-14T11:43:27.915Z,28.35
2018-04-14T11:44:30.375Z,30.23
2018-04-14T11:45:32.868Z,34.90
2018-04-14T11:46:36.158Z,34.67
2018-04-14T11:47:39.408Z,35.78
2018-04-14T11:48:41.913Z,37.38
2018-04-14T11:49:44.386Z,34.22
2018-04-14T11:50:46.887Z,34.35
2018-04-14T11:51:49.373Z,41.85
2018-04-14T11:52:52.696Z,39.05
2018-04-14T11:53:55.191Z,36.60
2018-04-14T11:54:57.649Z,38.78
2018-04-14T11:56:00.143Z,35.40
2018-04-14T11:57:02.619Z,34.13
2018-04-14T11:58:05.977Z,33.60
2018-04-14T11:59:08.445Z,27.62
2018-04-14T12:00:11.714Z,28.90
2018-04-14T12:01:14.747Z,26.02
2018-04-14T12:02:18.010Z,26.12
2018-04-14T12:03:20.468Z,27.17
2018-04-14T12:04:23.057Z,28.90
2018-04-14T12:05:26.332Z,27.90
2018-04-14T12:06:29.600Z,28.87
2018-04-14T12:07:33.030Z,27.85
2018-04-14T12:08:35.556Z,27.05
2018-04-14T12:09:38.029Z,25.00
2018-04-14T12:10:41.271Z,29.40
2018-04-14T12:11:43.767Z,28.83
2018-04-14T12:12:46.239Z,27.33
2018-04-14T12:13:49.476Z,25.02
2018-04-14T12:14:51.957Z,25.77
2018-04-14T12:15:54.424Z,30.92
2018-04-14T12:16:56.912Z,29.90
2018-04-14T12:17:59.456Z,30.15
2018-04-14T12:19:01.924Z,30.67
2018-04-14T12:20:06.084Z,29.15
2018-04-14T12:21:08.560Z,30.83
2018-04-14T12:22:11.264Z,29.17
2018-04-14T12:23:13.735Z,31.42
2018-04-14T12:24:16.224Z,31.55
2018-04-14T12:25:19.467Z,32.10
2018-04-14T12:26:21.932Z,32.85
2018-04-14T12:27:24.460Z,31.08
2018-04-14T12:28:26.965Z,31.70
2018-04-14T12:29:29.448Z,32.13
2018-04-14T12:30:32.705Z,31.83
2018-04-14T12:31:35.180Z,32.42
2018-04-14T12:32:37.674Z,32.78
2018-04-14T12:33:40.924Z,31.17
2018-04-14T12:34:43.408Z,30.73
2018-04-14T12:35:45.981Z,29.90
2018-04-14T12:36:49.233Z,28.10
2018-04-14T12:38:00.513Z,26.00
2018-04-14T12:39:02.988Z,26.80
2018-04-14T12:40:05.456Z,27.13
2018-04-14T12:41:07.924Z,29.35
2018-04-14T12:42:10.427Z,31.62
2018-04-14T12:43:12.915Z,30.70
2018-04-14T12:44:15.392Z,30.65
2018-04-14T12:45:17.859Z,33.55
2018-04-14T12:46:20.360Z,33.28
2018-04-14T12:47:23.591Z,31.98
2018-04-14T12:48:26.088Z,32.95
2018-04-14T12:49:29.339Z,30.58
2018-04-14T12:50:31.816Z,31.00
2018-04-14T12:51:34.288Z,31.98
2018-04-14T12:52:36.756Z,30.52
2018-04-14T12:53:39.289Z,30.90
2018-04-14T12:54:42.499Z,34.08
2018-04-14T12:55:45.188Z,33.42
2018-04-14T12:56:49.167Z,30.98
2018-04-14T12:57:51.636Z,31.50
2018-04-14T12:58:54.123Z,30.70
2018-04-14T12:59:57.391Z,31.48
2018-04-14T13:00:59.872Z,29.83
2018-04-14T13:02:02.336Z,29.83
2018-04-14T13:03:04.807Z,31.27
2018-04-14T13:04:08.079Z,31.92
2018-04-14T13:05:11.312Z,30.75
2018-04-14T13:06:13.779Z,29.87
2018-04-14T13:07:16.252Z,29.80
2018-04-14T13:08:18.772Z,28.33
2018-04-14T13:09:22.048Z,29.30
2018-04-14T13:10:25.412Z,27.75
2018-04-14T13:11:27.912Z,28.85
2018-04-14T13:12:30.400Z,29.83
2018-04-14T13:13:32.871Z,29.12
2018-04-14T13:14:35.376Z,27.40
2018-04-14T13:15:37.848Z,27.58
2018-04-14T13:16:41.109Z,28.12
2018-04-14T13:17:43.583Z,27.62
2018-04-14T13:18:46.068Z,26.92
2018-04-14T13:19:49.355Z,25.65
2018-04-14T13:20:52.609Z,25.37
2018-04-14T13:21:55.096Z,27.23
2018-04-14T13:22:58.328Z,30.67
2018-04-14T13:24:00.803Z,31.17
2018-04-14T13:25:03.308Z,28.70
2018-04-14T13:26:06.559Z,29.95
2018-04-14T13:27:09.039Z,29.90
2018-04-14T13:28:12.304Z,27.95
2018-04-14T13:29:14.863Z,24.92
2018-04-14T13:30:17.356Z,23.55
2018-04-14T13:31:19.829Z,25.12
2018-04-14T13:32:23.083Z,23.00
2018-04-14T13:33:25.623Z,25.80
2018-04-14T13:34:28.091Z,29.27
2018-04-14T13:35:30.584Z,26.87
2018-04-14T13:36:33.052Z,26.15
2018-04-14T13:37:35.622Z,25.02
2018-04-14T13:38:38.051Z,25.08
2018-04-14T13:39:40.535Z,24.25
2018-04-14T13:40:43.028Z,24.63